sensor_id;sensor_type;location;lat;lon;timestamp;P1;durP1;ratioP1;P2;durP2;ratioP2
51987;SDS011;38003;52.012;4.346;2023-03-01T00:01:09;13.80;;;9.30;;
51987;SDS011;38003;52.012;4.346;2023-03-01T00:03:39;11.67;;;10.13;;
51987;SDS011;38003;52.012;4.346;2023-03-01T00:06:08;12.07;;;9.17;;
51987;SDS011;38003;52.012;4.346;2023-03-01T00:08:36;12.40;;;9.70;;
51987;SDS011;38003;52.012;4.346;2023-03-01T00:11:05;10.23;;;8.93;;
51987;SDS011;38003;52.012;4.346;2023-03-01T00:13:34;11.70;;;9.40;;
51987;SDS011;38003;52.012;4.346;2023-03-01T00:16:03;10.47;;;9.37;;
51987;SDS011;38003;52.012;4.346;2023-03-01T00:18:31;12.67;;;10.17;;
51987;SDS011;38003;52.012;4.346;2023-03-01T00:21:01;11.50;;;9.37;;
51987;SDS011;38003;52.012;4.346;2023-03-01T00:23:29;10.87;;;9.57;;
51987;SDS011;38003;52.012;4.346;2023-03-01T00:25:57;11.27;;;9.77;;
51987;SDS011;38003;52.012;4.346;2023-03-01T00:28:26;11.63;;;10.33;;
51987;SDS011;38003;52.012;4.346;2023-03-01T00:30:54;12.73;;;9.87;;
51987;SDS011;38003;52.012;4.346;2023-03-01T00:33:22;11.50;;;10.10;;
51987;SDS011;38003;52.012;4.346;2023-03-01T00:35:50;10.80;;;9.30;;
51987;SDS011;38003;52.012;4.346;2023-03-01T00:38:20;10.70;;;9.60;;
51987;SDS011;38003;52.012;4.346;2023-03-01T00:40:48;10.23;;;9.10;;
51987;SDS011;38003;52.012;4.346;2023-03-01T00:43:17;11.23;;;9.47;;
51987;SDS011;38003;52.012;4.346;2023-03-01T00:45:45;10.77;;;9.57;;
51987;SDS011;38003;52.012;4.346;2023-03-01T00:48:13;13.20;;;9.50;;
51987;SDS011;38003;52.012;4.346;2023-03-01T00:50:41;11.40;;;9.90;;
51987;SDS011;38003;52.012;4.346;2023-03-01T00:53:09;12.30;;;10.43;;
51987;SDS011;38003;52.012;4.346;2023-03-01T00:55:39;11.87;;;10.00;;
51987;SDS011;38003;52.012;4.346;2023-03-01T00:58:07;12.27;;;10.03;;
51987;SDS011;38003;52.012;4.346;2023-03-01T01:00:35;15.27;;;10.47;;
51987;SDS011;38003;52.012;4.346;2023-03-01T01:03:04;11.37;;;9.83;;
51987;SDS011;38003;52.012;4.346;2023-03-01T01:05:33;12.90;;;10.57;;
51987;SDS011;38003;52.012;4.346;2023-03-01T01:08:02;12.67;;;10.60;;
51987;SDS011;38003;52.012;4.346;2023-03-01T01:10:30;13.33;;;11.30;;
51987;SDS011;38003;52.012;4.346;2023-03-01T01:13:00;14.83;;;10.63;;
51987;SDS011;38003;52.012;4.346;2023-03-01T01:15:28;13.27;;;10.60;;
51987;SDS011;38003;52.012;4.346;2023-03-01T01:17:56;13.83;;;11.47;;
51987;SDS011;38003;52.012;4.346;2023-03-01T01:20:24;13.20;;;11.33;;
51987;SDS011;38003;52.012;4.346;2023-03-01T01:22:53;12.57;;;11.07;;
51987;SDS011;38003;52.012;4.346;2023-03-01T01:25:21;14.17;;;10.87;;
51987;SDS011;38003;52.012;4.346;2023-03-01T01:27:51;14.20;;;11.67;;
51987;SDS011;38003;52.012;4.346;2023-03-01T01:30:20;14.43;;;11.57;;
51987;SDS011;38003;52.012;4.346;2023-03-01T01:32:48;14.80;;;11.53;;
51987;SDS011;38003;52.012;4.346;2023-03-01T01:35:17;15.20;;;12.50;;
51987;SDS011;38003;52.012;4.346;2023-03-01T01:37:45;15.13;;;11.97;;
51987;SDS011;38003;52.012;4.346;2023-03-01T01:40:13;14.23;;;12.07;;
51987;SDS011;38003;52.012;4.346;2023-03-01T01:42:41;16.43;;;11.90;;
51987;SDS011;38003;52.012;4.346;2023-03-01T01:45:26;15.03;;;12.30;;
51987;SDS011;38003;52.012;4.346;2023-03-01T01:47:55;14.97;;;12.13;;
51987;SDS011;38003;52.012;4.346;2023-03-01T01:50:26;17.43;;;12.93;;
51987;SDS011;38003;52.012;4.346;2023-03-01T01:53:05;14.70;;;12.33;;
51987;SDS011;38003;52.012;4.346;2023-03-01T01:55:34;14.47;;;12.17;;
51987;SDS011;38003;52.012;4.346;2023-03-01T01:58:04;15.60;;;12.37;;
51987;SDS011;38003;52.012;4.346;2023-03-01T02:00:35;16.63;;;12.47;;
51987;SDS011;38003;52.012;4.346;2023-03-01T02:03:07;16.70;;;12.60;;
51987;SDS011;38003;52.012;4.346;2023-03-01T02:05:37;15.83;;;13.07;;
51987;SDS011;38003;52.012;4.346;2023-03-01T02:08:06;16.23;;;12.87;;
51987;SDS011;38003;52.012;4.346;2023-03-01T02:10:36;15.30;;;12.67;;
51987;SDS011;38003;52.012;4.346;2023-03-01T02:13:05;15.10;;;13.00;;
51987;SDS011;38003;52.012;4.346;2023-03-01T02:15:36;16.50;;;13.03;;
51987;SDS011;38003;52.012;4.346;2023-03-01T02:18:05;18.67;;;14.67;;
51987;SDS011;38003;52.012;4.346;2023-03-01T02:20:34;17.20;;;13.33;;
51987;SDS011;38003;52.012;4.346;2023-03-01T02:23:06;17.53;;;14.13;;
51987;SDS011;38003;52.012;4.346;2023-03-01T02:25:37;16.37;;;13.70;;
51987;SDS011;38003;52.012;4.346;2023-03-01T02:28:08;19.23;;;14.53;;
51987;SDS011;38003;52.012;4.346;2023-03-01T02:30:40;19.47;;;14.17;;
51987;SDS011;38003;52.012;4.346;2023-03-01T02:33:30;18.60;;;14.37;;
51987;SDS011;38003;52.012;4.346;2023-03-01T02:35:59;20.47;;;15.33;;
51987;SDS011;38003;52.012;4.346;2023-03-01T02:38:28;18.90;;;14.60;;
51987;SDS011;38003;52.012;4.346;2023-03-01T02:40:56;18.67;;;14.93;;
51987;SDS011;38003;52.012;4.346;2023-03-01T02:43:29;17.87;;;14.67;;
51987;SDS011;38003;52.012;4.346;2023-03-01T02:46:04;18.30;;;15.33;;
51987;SDS011;38003;52.012;4.346;2023-03-01T02:48:39;20.43;;;15.30;;
51987;SDS011;38003;52.012;4.346;2023-03-01T02:51:10;18.47;;;14.33;;
51987;SDS011;38003;52.012;4.346;2023-03-01T02:53:41;19.00;;;15.10;;
51987;SDS011;38003;52.012;4.346;2023-03-01T02:56:09;20.10;;;15.47;;
51987;SDS011;38003;52.012;4.346;2023-03-01T02:58:39;17.23;;;14.87;;
51987;SDS011;38003;52.012;4.346;2023-03-01T03:01:13;18.50;;;14.23;;
51987;SDS011;38003;52.012;4.346;2023-03-01T03:03:42;18.63;;;15.77;;
51987;SDS011;38003;52.012;4.346;2023-03-01T03:06:10;18.40;;;15.27;;
51987;SDS011;38003;52.012;4.346;2023-03-01T03:08:38;18.90;;;15.43;;
51987;SDS011;38003;52.012;4.346;2023-03-01T03:11:07;18.63;;;14.97;;
51987;SDS011;38003;52.012;4.346;2023-03-01T03:13:35;18.70;;;15.17;;
51987;SDS011;38003;52.012;4.346;2023-03-01T03:16:04;18.40;;;15.00;;
51987;SDS011;38003;52.012;4.346;2023-03-01T03:18:34;20.87;;;16.07;;
51987;SDS011;38003;52.012;4.346;2023-03-01T03:21:02;20.87;;;16.40;;
51987;SDS011;38003;52.012;4.346;2023-03-01T03:23:31;22.30;;;15.47;;
51987;SDS011;38003;52.012;4.346;2023-03-01T03:25:59;19.57;;;15.90;;
51987;SDS011;38003;52.012;4.346;2023-03-01T03:28:27;19.00;;;15.60;;
51987;SDS011;38003;52.012;4.346;2023-03-01T03:30:56;21.33;;;15.60;;
51987;SDS011;38003;52.012;4.346;2023-03-01T03:33:29;19.70;;;15.73;;
51987;SDS011;38003;52.012;4.346;2023-03-01T03:35:59;20.73;;;16.70;;
51987;SDS011;38003;52.012;4.346;2023-03-01T03:38:27;21.73;;;16.20;;
51987;SDS011;38003;52.012;4.346;2023-03-01T03:40:59;20.63;;;15.80;;
51987;SDS011;38003;52.012;4.346;2023-03-01T03:43:29;21.13;;;16.60;;
51987;SDS011;38003;52.012;4.346;2023-03-01T03:45:57;20.17;;;15.97;;
51987;SDS011;38003;52.012;4.346;2023-03-01T03:48:26;18.53;;;15.50;;
51987;SDS011;38003;52.012;4.346;2023-03-01T03:50:55;22.43;;;16.13;;
51987;SDS011;38003;52.012;4.346;2023-03-01T03:53:25;19.90;;;15.90;;
51987;SDS011;38003;52.012;4.346;2023-03-01T03:55:54;20.87;;;16.83;;
51987;SDS011;38003;52.012;4.346;2023-03-01T03:58:23;21.13;;;16.73;;
51987;SDS011;38003;52.012;4.346;2023-03-01T04:00:52;19.93;;;16.10;;
51987;SDS011;38003;52.012;4.346;2023-03-01T04:03:22;23.10;;;16.93;;
51987;SDS011;38003;52.012;4.346;2023-03-01T04:05:51;25.60;;;18.47;;
51987;SDS011;38003;52.012;4.346;2023-03-01T04:08:20;21.50;;;17.57;;
51987;SDS011;38003;52.012;4.346;2023-03-01T04:10:50;23.40;;;18.00;;
51987;SDS011;38003;52.012;4.346;2023-03-01T04:13:19;24.30;;;18.93;;
51987;SDS011;38003;52.012;4.346;2023-03-01T04:15:48;24.40;;;18.43;;
51987;SDS011;38003;52.012;4.346;2023-03-01T04:18:17;23.37;;;19.10;;
51987;SDS011;38003;52.012;4.346;2023-03-01T04:20:45;24.67;;;19.33;;
51987;SDS011;38003;52.012;4.346;2023-03-01T04:23:15;23.77;;;19.27;;
51987;SDS011;38003;52.012;4.346;2023-03-01T04:25:47;24.60;;;19.30;;
51987;SDS011;38003;52.012;4.346;2023-03-01T04:28:21;24.43;;;19.87;;
51987;SDS011;38003;52.012;4.346;2023-03-01T04:30:51;27.03;;;19.97;;
51987;SDS011;38003;52.012;4.346;2023-03-01T04:33:20;24.87;;;18.60;;
51987;SDS011;38003;52.012;4.346;2023-03-01T04:35:48;28.53;;;20.50;;
51987;SDS011;38003;52.012;4.346;2023-03-01T04:38:17;24.57;;;19.13;;
51987;SDS011;38003;52.012;4.346;2023-03-01T04:40:45;24.43;;;19.10;;
51987;SDS011;38003;52.012;4.346;2023-03-01T04:43:14;24.13;;;19.23;;
51987;SDS011;38003;52.012;4.346;2023-03-01T04:45:44;25.80;;;19.97;;
51987;SDS011;38003;52.012;4.346;2023-03-01T04:48:12;24.93;;;19.60;;
51987;SDS011;38003;52.012;4.346;2023-03-01T04:50:40;25.03;;;20.00;;
51987;SDS011;38003;52.012;4.346;2023-03-01T04:53:08;25.77;;;19.80;;
51987;SDS011;38003;52.012;4.346;2023-03-01T04:55:37;27.63;;;20.73;;
51987;SDS011;38003;52.012;4.346;2023-03-01T04:58:05;26.90;;;21.10;;
51987;SDS011;38003;52.012;4.346;2023-03-01T05:00:33;26.50;;;20.53;;
51987;SDS011;38003;52.012;4.346;2023-03-01T05:03:03;28.70;;;20.33;;
51987;SDS011;38003;52.012;4.346;2023-03-01T05:05:32;31.83;;;22.00;;
51987;SDS011;38003;52.012;4.346;2023-03-01T05:08:01;39.97;;;22.20;;
51987;SDS011;38003;52.012;4.346;2023-03-01T05:10:31;37.23;;;20.90;;
51987;SDS011;38003;52.012;4.346;2023-03-01T05:13:01;62.83;;;21.80;;
51987;SDS011;38003;52.012;4.346;2023-03-01T05:15:30;64.47;;;21.30;;
51987;SDS011;38003;52.012;4.346;2023-03-01T05:17:59;37.57;;;20.40;;
51987;SDS011;38003;52.012;4.346;2023-03-01T05:20:29;63.60;;;20.57;;
51987;SDS011;38003;52.012;4.346;2023-03-01T05:22:58;100.13;;;19.37;;
51987;SDS011;38003;52.012;4.346;2023-03-01T05:25:31;71.60;;;19.73;;
51987;SDS011;38003;52.012;4.346;2023-03-01T05:28:00;65.10;;;20.53;;
51987;SDS011;38003;52.012;4.346;2023-03-01T05:30:31;29.00;;;18.83;;
51987;SDS011;38003;52.012;4.346;2023-03-01T05:32:59;42.67;;;18.20;;
51987;SDS011;38003;52.012;4.346;2023-03-01T05:35:28;50.97;;;19.23;;
51987;SDS011;38003;52.012;4.346;2023-03-01T05:37:58;25.40;;;18.57;;
51987;SDS011;38003;52.012;4.346;2023-03-01T05:40:27;27.17;;;18.07;;
51987;SDS011;38003;52.012;4.346;2023-03-01T05:42:55;24.63;;;19.27;;
51987;SDS011;38003;52.012;4.346;2023-03-01T05:45:24;23.23;;;18.33;;
51987;SDS011;38003;52.012;4.346;2023-03-01T05:47:53;22.10;;;18.13;;
51987;SDS011;38003;52.012;4.346;2023-03-01T05:50:22;22.80;;;18.50;;
51987;SDS011;38003;52.012;4.346;2023-03-01T05:52:57;23.63;;;18.53;;
51987;SDS011;38003;52.012;4.346;2023-03-01T05:55:25;25.57;;;20.03;;
51987;SDS011;38003;52.012;4.346;2023-03-01T05:57:54;23.90;;;19.10;;
51987;SDS011;38003;52.012;4.346;2023-03-01T06:00:22;24.80;;;18.90;;
51987;SDS011;38003;52.012;4.346;2023-03-01T06:02:51;24.97;;;19.80;;
51987;SDS011;38003;52.012;4.346;2023-03-01T06:05:19;25.33;;;19.37;;
51987;SDS011;38003;52.012;4.346;2023-03-01T06:07:48;24.30;;;19.00;;
51987;SDS011;38003;52.012;4.346;2023-03-01T06:10:19;24.17;;;19.20;;
51987;SDS011;38003;52.012;4.346;2023-03-01T06:12:47;25.70;;;18.93;;
51987;SDS011;38003;52.012;4.346;2023-03-01T06:15:16;23.50;;;19.07;;
51987;SDS011;38003;52.012;4.346;2023-03-01T06:17:45;25.80;;;20.23;;
51987;SDS011;38003;52.012;4.346;2023-03-01T06:20:14;24.97;;;19.93;;
51987;SDS011;38003;52.012;4.346;2023-03-01T06:22:43;23.40;;;18.77;;
51987;SDS011;38003;52.012;4.346;2023-03-01T06:25:13;24.10;;;19.83;;
51987;SDS011;38003;52.012;4.346;2023-03-01T06:27:43;28.97;;;20.30;;
51987;SDS011;38003;52.012;4.346;2023-03-01T06:30:12;28.83;;;20.50;;
51987;SDS011;38003;52.012;4.346;2023-03-01T06:32:41;25.93;;;19.90;;
51987;SDS011;38003;52.012;4.346;2023-03-01T06:35:09;26.93;;;19.70;;
51987;SDS011;38003;52.012;4.346;2023-03-01T06:37:38;25.63;;;19.27;;
51987;SDS011;38003;52.012;4.346;2023-03-01T06:40:06;24.67;;;19.63;;
51987;SDS011;38003;52.012;4.346;2023-03-01T06:42:38;25.37;;;19.17;;
51987;SDS011;38003;52.012;4.346;2023-03-01T06:45:09;24.53;;;19.77;;
51987;SDS011;38003;52.012;4.346;2023-03-01T06:47:37;22.73;;;19.17;;
51987;SDS011;38003;52.012;4.346;2023-03-01T06:50:06;23.67;;;18.70;;
51987;SDS011;38003;52.012;4.346;2023-03-01T06:52:34;24.43;;;18.97;;
51987;SDS011;38003;52.012;4.346;2023-03-01T06:55:02;22.93;;;18.80;;
51987;SDS011;38003;52.012;4.346;2023-03-01T06:57:31;23.03;;;18.00;;
51987;SDS011;38003;52.012;4.346;2023-03-01T06:59:59;24.00;;;19.30;;
51987;SDS011;38003;52.012;4.346;2023-03-01T07:02:28;23.63;;;18.77;;
51987;SDS011;38003;52.012;4.346;2023-03-01T07:04:57;23.73;;;18.33;;
51987;SDS011;38003;52.012;4.346;2023-03-01T07:07:25;22.37;;;17.57;;
51987;SDS011;38003;52.012;4.346;2023-03-01T07:09:53;24.03;;;18.73;;
51987;SDS011;38003;52.012;4.346;2023-03-01T07:12:21;23.03;;;18.97;;
51987;SDS011;38003;52.012;4.346;2023-03-01T07:14:49;25.27;;;19.00;;
51987;SDS011;38003;52.012;4.346;2023-03-01T07:17:18;25.40;;;18.70;;
51987;SDS011;38003;52.012;4.346;2023-03-01T07:19:47;24.03;;;18.67;;
51987;SDS011;38003;52.012;4.346;2023-03-01T07:22:16;23.37;;;18.20;;
51987;SDS011;38003;52.012;4.346;2023-03-01T07:24:44;24.03;;;18.40;;
51987;SDS011;38003;52.012;4.346;2023-03-01T07:27:12;25.00;;;19.53;;
51987;SDS011;38003;52.012;4.346;2023-03-01T07:29:40;21.33;;;17.33;;
51987;SDS011;38003;52.012;4.346;2023-03-01T07:32:08;23.03;;;17.13;;
51987;SDS011;38003;52.012;4.346;2023-03-01T07:34:37;23.60;;;17.53;;
51987;SDS011;38003;52.012;4.346;2023-03-01T07:37:07;23.97;;;18.20;;
51987;SDS011;38003;52.012;4.346;2023-03-01T07:39:35;22.47;;;17.93;;
51987;SDS011;38003;52.012;4.346;2023-03-01T07:42:03;22.33;;;17.93;;
51987;SDS011;38003;52.012;4.346;2023-03-01T07:44:32;23.63;;;18.33;;
51987;SDS011;38003;52.012;4.346;2023-03-01T07:47:00;22.60;;;18.13;;
51987;SDS011;38003;52.012;4.346;2023-03-01T07:49:28;23.03;;;18.53;;
51987;SDS011;38003;52.012;4.346;2023-03-01T07:51:57;23.70;;;18.77;;
51987;SDS011;38003;52.012;4.346;2023-03-01T07:54:26;24.13;;;19.47;;
51987;SDS011;38003;52.012;4.346;2023-03-01T07:56:56;22.53;;;18.70;;
51987;SDS011;38003;52.012;4.346;2023-03-01T07:59:24;23.63;;;19.63;;
51987;SDS011;38003;52.012;4.346;2023-03-01T08:01:56;22.70;;;18.87;;
51987;SDS011;38003;52.012;4.346;2023-03-01T08:04:24;25.67;;;19.20;;
51987;SDS011;38003;52.012;4.346;2023-03-01T08:06:53;23.17;;;18.43;;
51987;SDS011;38003;52.012;4.346;2023-03-01T08:09:21;22.73;;;18.93;;
51987;SDS011;38003;52.012;4.346;2023-03-01T08:11:51;22.93;;;19.23;;
51987;SDS011;38003;52.012;4.346;2023-03-01T08:14:20;25.93;;;19.37;;
51987;SDS011;38003;52.012;4.346;2023-03-01T08:16:49;25.07;;;19.67;;
51987;SDS011;38003;52.012;4.346;2023-03-01T08:19:17;22.43;;;18.43;;
51987;SDS011;38003;52.012;4.346;2023-03-01T08:21:46;24.27;;;19.37;;
51987;SDS011;38003;52.012;4.346;2023-03-01T08:24:14;21.97;;;18.70;;
51987;SDS011;38003;52.012;4.346;2023-03-01T08:26:42;21.63;;;18.33;;
51987;SDS011;38003;52.012;4.346;2023-03-01T08:29:12;24.67;;;19.43;;
51987;SDS011;38003;52.012;4.346;2023-03-01T08:31:40;23.87;;;18.40;;
51987;SDS011;38003;52.012;4.346;2023-03-01T08:34:09;21.07;;;18.00;;
51987;SDS011;38003;52.012;4.346;2023-03-01T08:36:39;23.27;;;19.67;;
51987;SDS011;38003;52.012;4.346;2023-03-01T08:39:08;21.43;;;18.63;;
51987;SDS011;38003;52.012;4.346;2023-03-01T08:41:36;21.77;;;19.10;;
51987;SDS011;38003;52.012;4.346;2023-03-01T08:44:05;21.60;;;17.77;;
51987;SDS011;38003;52.012;4.346;2023-03-01T08:46:36;21.53;;;18.90;;
51987;SDS011;38003;52.012;4.346;2023-03-01T08:49:05;20.30;;;16.53;;
51987;SDS011;38003;52.012;4.346;2023-03-01T08:51:35;17.60;;;15.27;;
51987;SDS011;38003;52.012;4.346;2023-03-01T08:54:04;18.00;;;15.80;;
51987;SDS011;38003;52.012;4.346;2023-03-01T08:56:32;18.20;;;15.90;;
51987;SDS011;38003;52.012;4.346;2023-03-01T08:59:00;17.63;;;14.73;;
51987;SDS011;38003;52.012;4.346;2023-03-01T09:01:29;16.90;;;14.50;;
51987;SDS011;38003;52.012;4.346;2023-03-01T09:03:58;16.90;;;14.70;;
51987;SDS011;38003;52.012;4.346;2023-03-01T09:06:29;18.70;;;14.20;;
51987;SDS011;38003;52.012;4.346;2023-03-01T09:08:59;16.20;;;13.80;;
51987;SDS011;38003;52.012;4.346;2023-03-01T09:11:27;16.93;;;14.40;;
51987;SDS011;38003;52.012;4.346;2023-03-01T09:13:56;17.37;;;14.57;;
51987;SDS011;38003;52.012;4.346;2023-03-01T09:16:24;16.57;;;13.30;;
51987;SDS011;38003;52.012;4.346;2023-03-01T09:18:53;14.37;;;12.47;;
51987;SDS011;38003;52.012;4.346;2023-03-01T09:21:23;15.40;;;12.17;;
51987;SDS011;38003;52.012;4.346;2023-03-01T09:24:05;14.67;;;11.53;;
51987;SDS011;38003;52.012;4.346;2023-03-01T09:26:34;14.60;;;11.80;;
51987;SDS011;38003;52.012;4.346;2023-03-01T09:29:02;13.03;;;10.93;;
51987;SDS011;38003;52.012;4.346;2023-03-01T09:31:30;16.23;;;10.07;;
51987;SDS011;38003;52.012;4.346;2023-03-01T09:33:58;13.30;;;9.73;;
51987;SDS011;38003;52.012;4.346;2023-03-01T09:36:28;10.73;;;8.87;;
51987;SDS011;38003;52.012;4.346;2023-03-01T09:38:57;13.03;;;9.10;;
51987;SDS011;38003;52.012;4.346;2023-03-01T09:41:31;9.60;;;8.10;;
51987;SDS011;38003;52.012;4.346;2023-03-01T09:44:04;11.60;;;7.50;;
51987;SDS011;38003;52.012;4.346;2023-03-01T09:46:37;9.60;;;7.73;;
51987;SDS011;38003;52.012;4.346;2023-03-01T09:49:10;15.23;;;7.43;;
51987;SDS011;38003;52.012;4.346;2023-03-01T09:51:41;12.10;;;8.63;;
51987;SDS011;38003;52.012;4.346;2023-03-01T09:54:09;9.27;;;7.20;;
51987;SDS011;38003;52.012;4.346;2023-03-01T09:56:39;10.00;;;7.33;;
51987;SDS011;38003;52.012;4.346;2023-03-01T09:59:11;7.17;;;5.80;;
51987;SDS011;38003;52.012;4.346;2023-03-01T10:01:44;8.67;;;6.17;;
51987;SDS011;38003;52.012;4.346;2023-03-01T10:04:23;8.63;;;6.13;;
51987;SDS011;38003;52.012;4.346;2023-03-01T10:06:58;10.50;;;6.47;;
51987;SDS011;38003;52.012;4.346;2023-03-01T10:09:32;10.63;;;6.33;;
51987;SDS011;38003;52.012;4.346;2023-03-01T10:12:02;9.73;;;6.23;;
51987;SDS011;38003;52.012;4.346;2023-03-01T10:14:33;13.17;;;6.17;;
51987;SDS011;38003;52.012;4.346;2023-03-01T10:17:03;8.63;;;5.87;;
51987;SDS011;38003;52.012;4.346;2023-03-01T10:19:34;7.70;;;5.67;;
51987;SDS011;38003;52.012;4.346;2023-03-01T10:22:09;9.50;;;6.73;;
51987;SDS011;38003;52.012;4.346;2023-03-01T10:24:38;9.90;;;6.90;;
51987;SDS011;38003;52.012;4.346;2023-03-01T10:27:07;9.97;;;7.17;;
51987;SDS011;38003;52.012;4.346;2023-03-01T10:29:37;8.27;;;6.53;;
51987;SDS011;38003;52.012;4.346;2023-03-01T10:32:08;9.60;;;7.30;;
51987;SDS011;38003;52.012;4.346;2023-03-01T10:34:38;8.37;;;7.07;;
51987;SDS011;38003;52.012;4.346;2023-03-01T10:37:11;8.07;;;7.27;;
51987;SDS011;38003;52.012;4.346;2023-03-01T10:39:54;15.03;;;8.70;;
51987;SDS011;38003;52.012;4.346;2023-03-01T10:42:25;9.10;;;7.47;;
51987;SDS011;38003;52.012;4.346;2023-03-01T10:44:54;11.53;;;8.13;;
51987;SDS011;38003;52.012;4.346;2023-03-01T10:47:23;11.30;;;7.60;;
51987;SDS011;38003;52.012;4.346;2023-03-01T10:49:53;9.53;;;8.30;;
51987;SDS011;38003;52.012;4.346;2023-03-01T10:52:24;11.13;;;8.50;;
51987;SDS011;38003;52.012;4.346;2023-03-01T10:54:54;12.43;;;8.33;;
51987;SDS011;38003;52.012;4.346;2023-03-01T10:57:33;13.57;;;9.80;;
51987;SDS011;38003;52.012;4.346;2023-03-01T11:00:18;8.47;;;7.20;;
51987;SDS011;38003;52.012;4.346;2023-03-01T11:02:47;8.63;;;7.00;;
51987;SDS011;38003;52.012;4.346;2023-03-01T11:05:18;9.13;;;6.70;;
51987;SDS011;38003;52.012;4.346;2023-03-01T11:07:48;9.33;;;7.20;;
51987;SDS011;38003;52.012;4.346;2023-03-01T11:10:18;13.47;;;8.57;;
51987;SDS011;38003;52.012;4.346;2023-03-01T11:12:46;8.73;;;6.97;;
51987;SDS011;38003;52.012;4.346;2023-03-01T11:15:21;8.63;;;6.00;;
51987;SDS011;38003;52.012;4.346;2023-03-01T11:17:50;8.13;;;6.73;;
51987;SDS011;38003;52.012;4.346;2023-03-01T11:20:35;8.67;;;6.30;;
51987;SDS011;38003;52.012;4.346;2023-03-01T11:23:05;8.07;;;6.40;;
51987;SDS011;38003;52.012;4.346;2023-03-01T11:25:37;6.93;;;6.10;;
51987;SDS011;38003;52.012;4.346;2023-03-01T11:28:06;7.60;;;6.87;;
51987;SDS011;38003;52.012;4.346;2023-03-01T11:30:35;11.37;;;8.13;;
51987;SDS011;38003;52.012;4.346;2023-03-01T11:33:11;11.57;;;8.27;;
51987;SDS011;38003;52.012;4.346;2023-03-01T11:35:42;7.37;;;6.67;;
51987;SDS011;38003;52.012;4.346;2023-03-01T11:38:18;9.70;;;6.90;;
51987;SDS011;38003;52.012;4.346;2023-03-01T11:40:49;8.83;;;6.43;;
51987;SDS011;38003;52.012;4.346;2023-03-01T11:43:23;8.50;;;6.70;;
51987;SDS011;38003;52.012;4.346;2023-03-01T11:45:58;7.77;;;6.97;;
51987;SDS011;38003;52.012;4.346;2023-03-01T11:48:30;9.47;;;7.50;;
51987;SDS011;38003;52.012;4.346;2023-03-01T11:51:16;10.23;;;8.60;;
51987;SDS011;38003;52.012;4.346;2023-03-01T11:53:53;11.37;;;10.17;;
51987;SDS011;38003;52.012;4.346;2023-03-01T11:56:26;11.37;;;10.17;;
51987;SDS011;38003;52.012;4.346;2023-03-01T11:59:02;10.90;;;9.77;;
51987;SDS011;38003;52.012;4.346;2023-03-01T12:01:42;11.60;;;9.50;;
51987;SDS011;38003;52.012;4.346;2023-03-01T12:04:22;11.87;;;9.60;;
51987;SDS011;38003;52.012;4.346;2023-03-01T12:06:52;12.90;;;10.77;;
51987;SDS011;38003;52.012;4.346;2023-03-01T12:09:31;13.17;;;11.10;;
51987;SDS011;38003;52.012;4.346;2023-03-01T12:14:52;13.03;;;10.77;;
51987;SDS011;38003;52.012;4.346;2023-03-01T12:17:30;13.97;;;11.60;;
51987;SDS011;38003;52.012;4.346;2023-03-01T12:20:04;14.60;;;11.40;;
51987;SDS011;38003;52.012;4.346;2023-03-01T12:22:38;12.70;;;11.27;;
51987;SDS011;38003;52.012;4.346;2023-03-01T12:25:17;13.23;;;11.67;;
51987;SDS011;38003;52.012;4.346;2023-03-01T12:27:51;15.37;;;11.53;;
51987;SDS011;38003;52.012;4.346;2023-03-01T12:30:24;13.60;;;11.00;;
51987;SDS011;38003;52.012;4.346;2023-03-01T12:32:57;14.00;;;11.43;;
51987;SDS011;38003;52.012;4.346;2023-03-01T12:35:36;14.97;;;10.90;;
51987;SDS011;38003;52.012;4.346;2023-03-01T12:38:12;11.83;;;10.23;;
51987;SDS011;38003;52.012;4.346;2023-03-01T12:43:44;12.83;;;9.83;;
51987;SDS011;38003;52.012;4.346;2023-03-01T12:46:18;13.07;;;9.57;;
51987;SDS011;38003;52.012;4.346;2023-03-01T12:48:51;11.30;;;9.70;;
51987;SDS011;38003;52.012;4.346;2023-03-01T12:51:24;12.67;;;9.87;;
51987;SDS011;38003;52.012;4.346;2023-03-01T12:53:54;16.17;;;11.00;;
51987;SDS011;38003;52.012;4.346;2023-03-01T12:56:24;13.50;;;10.63;;
51987;SDS011;38003;52.012;4.346;2023-03-01T12:58:59;16.63;;;11.63;;
51987;SDS011;38003;52.012;4.346;2023-03-01T13:01:36;12.63;;;10.83;;
51987;SDS011;38003;52.012;4.346;2023-03-01T13:04:13;13.70;;;10.17;;
51987;SDS011;38003;52.012;4.346;2023-03-01T13:06:44;13.30;;;10.97;;
51987;SDS011;38003;52.012;4.346;2023-03-01T13:09:18;13.23;;;11.27;;
51987;SDS011;38003;52.012;4.346;2023-03-01T13:11:47;16.37;;;11.90;;
51987;SDS011;38003;52.012;4.346;2023-03-01T13:14:36;15.57;;;11.67;;
51987;SDS011;38003;52.012;4.346;2023-03-01T13:17:28;13.80;;;11.53;;
51987;SDS011;38003;52.012;4.346;2023-03-01T13:19:57;13.73;;;12.33;;
51987;SDS011;38003;52.012;4.346;2023-03-01T13:22:26;15.57;;;12.33;;
51987;SDS011;38003;52.012;4.346;2023-03-01T13:25:00;13.03;;;11.10;;
51987;SDS011;38003;52.012;4.346;2023-03-01T13:27:29;14.83;;;10.47;;
51987;SDS011;38003;52.012;4.346;2023-03-01T13:29:58;12.00;;;10.50;;
51987;SDS011;38003;52.012;4.346;2023-03-01T13:32:32;13.03;;;10.93;;
51987;SDS011;38003;52.012;4.346;2023-03-01T13:38:02;12.83;;;10.67;;
51987;SDS011;38003;52.012;4.346;2023-03-01T13:40:57;11.17;;;9.60;;
51987;SDS011;38003;52.012;4.346;2023-03-01T13:43:28;12.47;;;10.13;;
51987;SDS011;38003;52.012;4.346;2023-03-01T13:45:56;11.40;;;9.00;;
51987;SDS011;38003;52.012;4.346;2023-03-01T13:48:26;11.57;;;8.17;;
51987;SDS011;38003;52.012;4.346;2023-03-01T13:50:56;10.53;;;6.60;;
51987;SDS011;38003;52.012;4.346;2023-03-01T13:53:26;6.90;;;5.90;;
51987;SDS011;38003;52.012;4.346;2023-03-01T13:55:57;8.50;;;6.20;;
51987;SDS011;38003;52.012;4.346;2023-03-01T13:58:27;7.67;;;5.77;;
51987;SDS011;38003;52.012;4.346;2023-03-01T14:00:56;7.10;;;5.93;;
51987;SDS011;38003;52.012;4.346;2023-03-01T14:03:26;6.30;;;5.23;;
51987;SDS011;38003;52.012;4.346;2023-03-01T14:05:59;7.97;;;6.10;;
51987;SDS011;38003;52.012;4.346;2023-03-01T14:08:39;8.70;;;6.37;;
51987;SDS011;38003;52.012;4.346;2023-03-01T14:13:59;7.43;;;5.70;;
51987;SDS011;38003;52.012;4.346;2023-03-01T14:16:32;8.10;;;5.93;;
51987;SDS011;38003;52.012;4.346;2023-03-01T14:19:07;7.27;;;5.47;;
51987;SDS011;38003;52.012;4.346;2023-03-01T14:22:03;6.43;;;5.17;;
51987;SDS011;38003;52.012;4.346;2023-03-01T14:24:32;6.67;;;5.73;;
51987;SDS011;38003;52.012;4.346;2023-03-01T14:27:03;5.53;;;5.00;;
51987;SDS011;38003;52.012;4.346;2023-03-01T14:29:35;9.03;;;5.07;;
51987;SDS011;38003;52.012;4.346;2023-03-01T14:32:10;6.10;;;5.37;;
51987;SDS011;38003;52.012;4.346;2023-03-01T14:34:42;10.20;;;5.70;;
51987;SDS011;38003;52.012;4.346;2023-03-01T14:37:11;6.97;;;5.10;;
51987;SDS011;38003;52.012;4.346;2023-03-01T14:39:45;7.13;;;5.57;;
51987;SDS011;38003;52.012;4.346;2023-03-01T14:42:13;6.47;;;5.77;;
51987;SDS011;38003;52.012;4.346;2023-03-01T14:44:44;6.57;;;5.70;;
51987;SDS011;38003;52.012;4.346;2023-03-01T14:47:14;6.00;;;5.17;;
51987;SDS011;38003;52.012;4.346;2023-03-01T14:49:43;7.53;;;5.53;;
51987;SDS011;38003;52.012;4.346;2023-03-01T14:52:18;6.23;;;5.33;;
51987;SDS011;38003;52.012;4.346;2023-03-01T14:54:47;6.27;;;5.63;;
51987;SDS011;38003;52.012;4.346;2023-03-01T14:57:16;10.70;;;6.03;;
51987;SDS011;38003;52.012;4.346;2023-03-01T14:59:46;9.37;;;7.20;;